Time;durP1;ratioP1;P1;durP2;ratioP2;P2;SDS_P1;SDS_P2;PMS_P1;PMS_P2;Temp;Humidity;BMP_temperature;BMP_pressure;BME280_temperature;BME280_humidity;BME280_pressure;Samples;Min_cycle;Max_cycle;Signal;HPM_P1;HPM_P2
2020/12/02 00:01:42;;;;;;;14.32;10.18;;;;;;;;;;5101444;28;20552;-93
2020/12/02 00:04:12;;;;;;;13.50;9.80;;;;;;;;;;5100187;28;20542;-93
2020/12/02 00:06:42;;;;;;;11.98;9.60;;;;;;;;;;5100924;28;20283;-94
2020/12/02 00:09:14;;;;;;;10.05;8.57;;;;;;;;;;5100067;28;20263;-94
2020/12/02 00:11:41;;;;;;;12.25;9.07;;;;;;;;;;5100996;28;20271;-92
2020/12/02 00:14:12;;;;;;;9.38;7.20;;;;;;;;;;5100379;28;20176;-93
2020/12/02 00:16:40;;;;;;;9.82;7.60;;;;;;;;;;5100420;28;20214;-93
2020/12/02 00:19:07;;;;;;;8.10;7.10;;;;;;;;;;5100208;28;20189;-93
2020/12/02 00:21:35;;;;;;;8.27;6.88;;;;;;;;;;5099840;28;20597;-94
2020/12/02 00:24:02;;;;;;;10.27;8.07;;;;;;;;;;5100287;28;20220;-92
2020/12/02 00:26:30;;;;;;;9.18;7.75;;;;;;;;;;5099997;28;20220;-93
2020/12/02 00:28:59;;;;;;;8.98;6.85;;;;;;;;;;5099880;28;20206;-94
2020/12/02 00:31:27;;;;;;;9.73;7.00;;;;;;;;;;5100592;28;20202;-93
2020/12/02 00:34:03;;;;;;;9.23;7.15;;;;;;;;;;5100104;28;20203;-93
2020/12/02 00:36:30;;;;;;;10.52;7.88;;;;;;;;;;5058223;28;20205;-93
2020/12/02 00:38:57;;;;;;;8.45;6.95;;;;;;;;;;5058642;28;20201;-94
2020/12/02 00:41:24;;;;;;;10.15;7.25;;;;;;;;;;5058439;28;20194;-93
2020/12/02 00:43:51;;;;;;;9.90;7.13;;;;;;;;;;5058318;28;20244;-94
2020/12/02 00:46:18;;;;;;;11.00;7.78;;;;;;;;;;5057922;28;20200;-92
2020/12/02 00:48:53;;;;;;;9.85;7.20;;;;;;;;;;5058547;28;20611;-92
2020/12/02 00:51:26;;;;;;;13.75;8.82;;;;;;;;;;5057998;28;20207;-93
2020/12/02 00:53:53;;;;;;;13.15;8.18;;;;;;;;;;4998515;28;20202;-93
2020/12/02 00:56:24;;;;;;;17.17;9.98;;;;;;;;;;4998521;28;20619;-93
2020/12/02 00:59:01;;;;;;;15.10;9.38;;;;;;;;;;4998885;28;20283;-95
2020/12/02 01:01:38;;;;;;;20.13;8.60;;;;;;;;;;5024914;28;20208;-92
2020/12/02 01:04:09;;;;;;;15.45;9.75;;;;;;;;;;5038244;28;20487;-93
2020/12/02 01:06:36;;;;;;;16.35;10.02;;;;;;;;;;5037993;28;20523;-92
2020/12/02 01:09:04;;;;;;;16.83;9.43;;;;;;;;;;5038028;28;20222;-93
2020/12/02 01:11:33;;;;;;;14.93;9.82;;;;;;;;;;5038155;28;20544;-93
2020/12/02 01:14:02;;;;;;;16.92;10.38;;;;;;;;;;5038140;28;20195;-92
2020/12/02 01:16:41;;;;;;;16.80;9.05;;;;;;;;;;5037196;28;20208;-93
2020/12/02 01:19:17;;;;;;;17.50;10.77;;;;;;;;;;5084436;28;20207;-93
2020/12/02 01:21:49;;;;;;;15.90;9.93;;;;;;;;;;5098930;28;20575;-93
2020/12/02 01:24:21;;;;;;;16.02;9.80;;;;;;;;;;5099517;28;20220;-93
2020/12/02 01:27:14;;;;;;;14.27;9.38;;;;;;;;;;5099457;28;20207;-93
2020/12/02 01:29:41;;;;;;;11.63;8.90;;;;;;;;;;5099347;28;20228;-93
2020/12/02 01:32:09;;;;;;;15.60;11.43;;;;;;;;;;5098874;28;20475;-92
2020/12/02 01:34:36;;;;;;;12.73;7.63;;;;;;;;;;5099000;28;20203;-92
2020/12/02 01:37:35;;;;;;;17.52;10.20;;;;;;;;;;5098888;28;20191;-94
2020/12/02 01:40:14;;;;;;;10.27;8.70;;;;;;;;;;5092062;28;20201;-92
2020/12/02 01:42:47;;;;;;;15.48;10.30;;;;;;;;;;5099643;28;20206;-93
2020/12/02 01:45:23;;;;;;;12.90;9.13;;;;;;;;;;5098539;28;20600;-94
2020/12/02 01:48:27;;;;;;;14.38;10.20;;;;;;;;;;5099559;28;20204;-93
2020/12/02 01:51:05;;;;;;;15.18;9.13;;;;;;;;;;5098577;28;20484;-93
2020/12/02 01:53:44;;;;;;;17.45;10.45;;;;;;;;;;5099592;28;20207;-92
2020/12/02 01:56:19;;;;;;;15.45;9.10;;;;;;;;;;5099180;28;20303;-92
2020/12/02 01:59:35;;;;;;;12.75;9.52;;;;;;;;;;5098959;28;20611;-93
2020/12/02 02:02:36;;;;;;;10.93;9.02;;;;;;;;;;5097891;28;20192;-93
2020/12/02 02:05:18;;;;;;;12.40;8.57;;;;;;;;;;5098330;28;20204;-94
2020/12/02 02:07:51;;;;;;;10.75;7.93;;;;;;;;;;5098900;28;20192;-93
2020/12/02 02:10:22;;;;;;;10.80;8.68;;;;;;;;;;5098237;28;20288;-94
2020/12/02 02:16:42;;;;;;;11.75;7.75;;;;;;;;;;5057962;28;20182;-93
2020/12/02 02:19:18;;;;;;;11.13;8.05;;;;;;;;;;5057125;28;20202;-94
2020/12/02 02:21:48;;;;;;;9.65;7.28;;;;;;;;;;5057125;28;20193;-93
2020/12/02 02:24:18;;;;;;;10.68;6.90;;;;;;;;;;5057192;28;20206;-93
2020/12/02 02:27:07;;;;;;;9.55;6.85;;;;;;;;;;5057369;28;20193;-93
2020/12/02 02:29:40;;;;;;;12.27;8.15;;;;;;;;;;5059996;28;20713;-92
2020/12/02 02:32:21;;;;;;;8.90;6.70;;;;;;;;;;5060863;28;20201;-93
2020/12/02 02:35:10;;;;;;;10.63;8.35;;;;;;;;;;5060614;28;20232;-93
2020/12/02 02:37:37;;;;;;;7.78;6.65;;;;;;;;;;5060650;28;20213;-94
2020/12/02 02:40:08;;;;;;;7.78;6.38;;;;;;;;;;5060832;28;20282;-93
2020/12/02 02:42:39;;;;;;;8.07;6.38;;;;;;;;;;5060745;28;20566;-94
2020/12/02 02:45:22;;;;;;;7.78;6.07;;;;;;;;;;5060193;28;20573;-93
2020/12/02 02:47:49;;;;;;;10.75;7.43;;;;;;;;;;5060581;28;20257;-93
2020/12/02 02:50:26;;;;;;;10.35;7.60;;;;;;;;;;5060743;28;20289;-93
2020/12/02 02:52:55;;;;;;;10.60;7.50;;;;;;;;;;5064576;28;20527;-94
2020/12/02 02:55:25;;;;;;;11.20;7.32;;;;;;;;;;5101962;28;20224;-93
2020/12/02 02:57:53;;;;;;;10.75;7.03;;;;;;;;;;5101696;28;20230;-94
2020/12/02 03:00:26;;;;;;;8.48;6.88;;;;;;;;;;5101979;28;20477;-92
2020/12/02 03:03:01;;;;;;;6.38;5.40;;;;;;;;;;5101487;28;20187;-94
2020/12/02 03:05:31;;;;;;;8.45;6.45;;;;;;;;;;5101996;28;20220;-94
2020/12/02 03:08:04;;;;;;;8.63;6.13;;;;;;;;;;5101829;28;20366;-92
2020/12/02 03:10:34;;;;;;;9.50;7.60;;;;;;;;;;5101532;28;20201;-92
2020/12/02 03:13:06;;;;;;;9.32;6.85;;;;;;;;;;5101672;28;20200;-94
2020/12/02 03:15:45;;;;;;;9.07;7.20;;;;;;;;;;5101468;28;20469;-94
2020/12/02 03:18:16;;;;;;;11.27;7.38;;;;;;;;;;5101776;28;20197;-94
2020/12/02 03:20:47;;;;;;;8.10;6.43;;;;;;;;;;5101118;28;20561;-93
2020/12/02 03:23:15;;;;;;;10.25;7.13;;;;;;;;;;5101430;28;20197;-94
2020/12/02 03:25:43;;;;;;;10.05;7.18;;;;;;;;;;5101276;28;20224;-94
2020/12/02 03:28:12;;;;;;;12.52;8.45;;;;;;;;;;5100762;28;20181;-93
2020/12/02 03:30:40;;;;;;;12.10;8.00;;;;;;;;;;5101326;28;20220;-92
2020/12/02 03:33:11;;;;;;;9.98;6.32;;;;;;;;;;5101735;28;20204;-94
2020/12/02 03:35:38;;;;;;;10.13;7.20;;;;;;;;;;5101461;28;20534;-93
2020/12/02 03:38:08;;;;;;;12.52;7.90;;;;;;;;;;5101084;28;20279;-93
2020/12/02 03:40:35;;;;;;;10.45;8.23;;;;;;;;;;5100957;28;20200;-95
2020/12/02 03:43:02;;;;;;;9.45;6.57;;;;;;;;;;5101391;28;20201;-94
2020/12/02 03:45:33;;;;;;;11.38;8.13;;;;;;;;;;5101245;28;20224;-93
2020/12/02 03:48:00;;;;;;;11.55;8.05;;;;;;;;;;5100713;28;20583;-92
2020/12/02 03:50:27;;;;;;;9.35;7.60;;;;;;;;;;5101365;28;20269;-93
2020/12/02 03:53:33;;;;;;;11.07;8.70;;;;;;;;;;5100847;28;20204;-92
2020/12/02 03:56:20;;;;;;;10.77;7.05;;;;;;;;;;5276801;22;20235;-93
2020/12/02 03:58:48;;;;;;;10.75;7.22;;;;;;;;;;5100889;28;20327;-93
2020/12/02 04:01:16;;;;;;;11.23;7.38;;;;;;;;;;5100601;28;20443;-94
2020/12/02 04:03:43;;;;;;;10.20;7.63;;;;;;;;;;5100237;28;20231;-91
2020/12/02 04:06:11;;;;;;;11.02;7.07;;;;;;;;;;5100523;28;20216;-93
2020/12/02 04:08:40;;;;;;;11.15;8.13;;;;;;;;;;5100764;28;20197;-92
2020/12/02 04:11:10;;;;;;;10.68;8.00;;;;;;;;;;5100033;28;20181;-91
2020/12/02 04:13:38;;;;;;;9.50;6.72;;;;;;;;;;5100740;28;20621;-93
2020/12/02 04:16:05;;;;;;;12.30;8.75;;;;;;;;;;5100994;28;20189;-92
2020/12/02 04:18:33;;;;;;;10.43;7.20;;;;;;;;;;5100842;28;20271;-91
2020/12/02 04:21:00;;;;;;;8.48;6.32;;;;;;;;;;5100849;28;20196;-92
2020/12/02 04:23:27;;;;;;;10.57;7.47;;;;;;;;;;5100130;28;20196;-92
2020/12/02 04:25:55;;;;;;;11.98;7.75;;;;;;;;;;5113132;28;20227;-93
2020/12/02 04:28:22;;;;;;;9.48;7.40;;;;;;;;;;5120474;28;20191;-92
2020/12/02 04:30:49;;;;;;;10.50;7.15;;;;;;;;;;5120360;28;20206;-91
2020/12/02 04:33:17;;;;;;;11.50;7.60;;;;;;;;;;5121072;28;20213;-92
2020/12/02 04:35:54;;;;;;;13.00;8.88;;;;;;;;;;5121077;28;20205;-89
2020/12/02 04:38:21;;;;;;;12.30;7.90;;;;;;;;;;5121273;28;20495;-92
2020/12/02 04:40:48;;;;;;;9.98;7.45;;;;;;;;;;5119872;28;20192;-90
2020/12/02 04:43:20;;;;;;;9.13;7.07;;;;;;;;;;5120162;28;20180;-88
2020/12/02 04:45:49;;;;;;;10.32;7.53;;;;;;;;;;5111200;28;20215;-91
2020/12/02 04:48:20;;;;;;;10.35;7.78;;;;;;;;;;5099450;28;20180;-91
2020/12/02 04:50:48;;;;;;;10.35;7.03;;;;;;;;;;5099157;28;20192;-91
2020/12/02 04:53:19;;;;;;;11.68;7.93;;;;;;;;;;5098992;28;20200;-90
2020/12/02 04:55:50;;;;;;;10.73;8.13;;;;;;;;;;5099142;28;20322;-90
2020/12/02 04:58:27;;;;;;;9.98;7.25;;;;;;;;;;5099378;28;20187;-89
2020/12/02 05:00:54;;;;;;;10.43;8.02;;;;;;;;;;5099631;28;20464;-89
2020/12/02 05:03:22;;;;;;;10.43;7.68;;;;;;;;;;5099311;28;20573;-89
2020/12/02 05:06:01;;;;;;;14.10;8.05;;;;;;;;;;5099388;28;20209;-89
2020/12/02 05:08:31;;;;;;;11.25;8.00;;;;;;;;;;5099045;28;20188;-88
2020/12/02 05:10:59;;;;;;;12.95;8.90;;;;;;;;;;5099098;28;20181;-89
2020/12/02 05:13:26;;;;;;;12.45;9.13;;;;;;;;;;5099823;28;20522;-89
2020/12/02 05:16:06;;;;;;;11.65;8.35;;;;;;;;;;5099109;28;20189;-89
2020/12/02 05:18:33;;;;;;;12.23;8.52;;;;;;;;;;5099077;28;20267;-89
2020/12/02 05:21:05;;;;;;;13.70;8.38;;;;;;;;;;5099729;28;20192;-90
2020/12/02 05:23:32;;;;;;;14.70;9.25;;;;;;;;;;5098956;28;20188;-89
2020/12/02 05:25:59;;;;;;;12.48;9.32;;;;;;;;;;5098675;28;20216;-89
2020/12/02 05:28:30;;;;;;;14.75;10.05;;;;;;;;;;5098928;28;20188;-88
2020/12/02 05:31:07;;;;;;;13.65;9.07;;;;;;;;;;5098768;28;20189;-89
2020/12/02 05:33:35;;;;;;;13.23;10.25;;;;;;;;;;5098893;28;20184;-89
2020/12/02 05:36:11;;;;;;;13.57;9.10;;;;;;;;;;5098790;28;20191;-89
2020/12/02 05:38:40;;;;;;;15.52;10.18;;;;;;;;;;5098918;28;20188;-90
2020/12/02 05:41:14;;;;;;;11.77;7.70;;;;;;;;;;5099227;28;20200;-88
2020/12/02 05:43:45;;;;;;;14.55;9.23;;;;;;;;;;5099164;28;20208;-89
2020/12/02 05:46:20;;;;;;;11.50;8.10;;;;;;;;;;5098436;28;20204;-91
2020/12/02 05:48:47;;;;;;;14.57;9.35;;;;;;;;;;5099433;28;20211;-91
2020/12/02 05:51:19;;;;;;;22.70;10.30;;;;;;;;;;5098411;28;20208;-90
2020/12/02 05:53:52;;;;;;;16.20;9.93;;;;;;;;;;5099460;28;20204;-91
2020/12/02 05:56:19;;;;;;;19.88;10.38;;;;;;;;;;5098892;28;20241;-91
2020/12/02 05:58:46;;;;;;;23.75;11.15;;;;;;;;;;5098468;28;20275;-91
2020/12/02 06:01:15;;;;;;;21.65;10.10;;;;;;;;;;5098813;28;20279;-91
2020/12/02 06:03:42;;;;;;;15.27;8.68;;;;;;;;;;5101521;28;20192;-91
2020/12/02 06:06:15;;;;;;;41.83;10.55;;;;;;;;;;5102527;28;20227;-92
2020/12/02 06:08:44;;;;;;;16.42;9.35;;;;;;;;;;5103376;28;20207;-92
2020/12/02 06:11:33;;;;;;;14.57;9.15;;;;;;;;;;5103409;28;20203;-91
2020/12/02 06:14:08;;;;;;;21.52;9.70;;;;;;;;;;5103360;28;20193;-91
2020/12/02 06:16:43;;;;;;;12.30;8.80;;;;;;;;;;5102874;28;20188;-91
2020/12/02 06:19:24;;;;;;;16.05;10.15;;;;;;;;;;5103319;28;20191;-92
2020/12/02 06:21:55;;;;;;;15.23;10.25;;;;;;;;;;5102092;28;20187;-92
2020/12/02 06:24:42;;;;;;;12.48;9.75;;;;;;;;;;5102777;28;20196;-92
2020/12/02 06:27:43;;;;;;;12.68;8.80;;;;;;;;;;5102034;28;20231;-92
2020/12/02 06:30:19;;;;;;;12.35;9.10;;;;;;;;;;5102353;28;20172;-92
2020/12/02 06:33:21;;;;;;;12.55;8.88;;;;;;;;;;5102400;28;20192;-91
2020/12/02 06:36:00;;;;;;;11.68;8.73;;;;;;;;;;5102975;28;20195;-92
2020/12/02 06:38:31;;;;;;;11.68;8.68;;;;;;;;;;5102208;28;20200;-92
2020/12/02 06:41:30;;;;;;;13.77;9.45;;;;;;;;;;5102564;28;20222;-91
2020/12/02 06:44:03;;;;;;;11.75;9.07;;;;;;;;;;5102050;28;20177;-91
2020/12/02 06:47:20;;;;;;;15.30;10.25;;;;;;;;;;5101904;28;20210;-93
2020/12/02 06:49:50;;;;;;;12.90;9.15;;;;;;;;;;5102492;28;20208;-92
2020/12/02 06:52:26;;;;;;;14.70;9.68;;;;;;;;;;5102759;28;20196;-91
2020/12/02 06:55:12;;;;;;;13.80;9.90;;;;;;;;;;5101782;28;20506;-92
2020/12/02 06:57:39;;;;;;;14.40;10.13;;;;;;;;;;5102495;28;20196;-91
2020/12/02 07:00:10;;;;;;;12.20;8.95;;;;;;;;;;5102136;28;20295;-92
2020/12/02 07:02:43;;;;;;;13.07;9.23;;;;;;;;;;5101616;28;20203;-91
2020/12/02 07:05:23;;;;;;;13.38;9.90;;;;;;;;;;5102371;28;20208;-92
2020/12/02 07:08:20;;;;;;;12.75;9.60;;;;;;;;;;5101273;28;20176;-92
2020/12/02 07:10:59;;;;;;;14.27;9.85;;;;;;;;;;5102534;28;20196;-93
2020/12/02 07:13:27;;;;;;;14.13;10.43;;;;;;;;;;5101231;28;20181;-92
2020/12/02 07:15:54;;;;;;;12.13;10.18;;;;;;;;;;5101006;28;20189;-92
2020/12/02 07:18:23;;;;;;;13.43;10.07;;;;;;;;;;5101825;28;20193;-93
2020/12/02 07:21:19;;;;;;;11.77;9.25;;;;;;;;;;5101040;28;20177;-92
2020/12/02 07:23:46;;;;;;;11.82;8.23;;;;;;;;;;5101294;28;20181;-92
2020/12/02 07:26:14;;;;;;;11.88;8.93;;;;;;;;;;5101270;28;20479;-92
2020/12/02 07:28:41;;;;;;;12.60;8.45;;;;;;;;;;5101725;28;20197;-91
2020/12/02 07:31:15;;;;;;;10.43;9.10;;;;;;;;;;5101960;28;20200;-92
2020/12/02 07:34:06;;;;;;;13.68;9.38;;;;;;;;;;5102157;28;20204;-94
2020/12/02 07:36:35;;;;;;;10.65;9.20;;;;;;;;;;5101450;28;20193;-92
2020/12/02 07:39:10;;;;;;;11.13;9.27;;;;;;;;;;5100716;28;20286;-93
2020/12/02 07:41:44;;;;;;;13.65;9.18;;;;;;;;;;5101403;28;20529;-92
2020/12/02 07:44:11;;;;;;;15.55;10.02;;;;;;;;;;5101694;28;20287;-93
2020/12/02 07:46:38;;;;;;;15.13;10.35;;;;;;;;;;5101554;28;20228;-92
2020/12/02 07:49:06;;;;;;;12.80;9.48;;;;;;;;;;5101234;28;20214;-94
2020/12/02 07:51:39;;;;;;;11.80;9.55;;;;;;;;;;5101111;28;20189;-92
2020/12/02 07:54:12;;;;;;;15.88;9.55;;;;;;;;;;5101125;28;20196;-92
2020/12/02 07:56:41;;;;;;;12.55;9.07;;;;;;;;;;5100828;28;20246;-92
2020/12/02 07:59:14;;;;;;;13.48;8.77;;;;;;;;;;5100987;28;20433;-92
2020/12/02 08:02:02;;;;;;;13.60;9.85;;;;;;;;;;5101453;28;20458;-92
2020/12/02 08:04:38;;;;;;;12.25;9.25;;;;;;;;;;5100974;28;20291;-93
2020/12/02 08:07:08;;;;;;;12.35;9.45;;;;;;;;;;5100323;28;20492;-92
2020/12/02 08:09:40;;;;;;;14.18;10.10;;;;;;;;;;5100904;28;20215;-93
2020/12/02 08:12:10;;;;;;;10.73;8.15;;;;;;;;;;5101412;28;20494;-93
2020/12/02 08:14:41;;;;;;;10.63;9.25;;;;;;;;;;5099970;28;20267;-92
2020/12/02 08:17:16;;;;;;;12.52;9.40;;;;;;;;;;5100617;28;20211;-93
2020/12/02 08:19:46;;;;;;;9.18;8.20;;;;;;;;;;5100881;28;20200;-92
2020/12/02 08:22:25;;;;;;;12.20;8.40;;;;;;;;;;5100478;28;20272;-93
2020/12/02 08:25:20;;;;;;;12.02;8.88;;;;;;;;;;5100822;28;20234;-92
2020/12/02 08:27:49;;;;;;;12.57;9.50;;;;;;;;;;5100125;28;20224;-92
2020/12/02 08:30:21;;;;;;;12.38;9.23;;;;;;;;;;5100708;28;20188;-93
2020/12/02 08:32:54;;;;;;;11.45;9.00;;;;;;;;;;5099895;28;20177;-91
2020/12/02 08:35:28;;;;;;;12.05;9.05;;;;;;;;;;5100683;28;20210;-93
2020/12/02 08:37:57;;;;;;;11.65;8.77;;;;;;;;;;5099639;28;20271;-93
2020/12/02 08:40:39;;;;;;;11.23;9.02;;;;;;;;;;5100141;28;20275;-93
2020/12/02 08:43:27;;;;;;;12.13;10.30;;;;;;;;;;5099864;28;20196;-93
2020/12/02 08:46:02;;;;;;;13.88;8.45;;;;;;;;;;5100000;28;20283;-93
2020/12/02 08:48:29;;;;;;;11.98;9.23;;;;;;;;;;5100367;28;20192;-93
2020/12/02 08:50:56;;;;;;;12.40;9.45;;;;;;;;;;5100207;28;20200;-93
2020/12/02 08:53:26;;;;;;;12.88;9.48;;;;;;;;;;5100222;28;20192;-91
2020/12/02 08:55:55;;;;;;;13.93;9.77;;;;;;;;;;5099380;28;20270;-93
2020/12/02 08:58:22;;;;;;;13.65;9.80;;;;;;;;;;5099805;28;20188;-92
2020/12/02 09:00:50;;;;;;;11.63;9.05;;;;;;;;;;5099951;28;20188;-93
2020/12/02 09:03:18;;;;;;;13.07;9.38;;;;;;;;;;5099770;28;20196;-93
2020/12/02 09:05:45;;;;;;;10.77;8.13;;;;;;;;;;5099304;28;20455;-93
2020/12/02 09:08:12;;;;;;;15.60;10.75;;;;;;;;;;5098957;28;20550;-93
2020/12/02 09:10:39;;;;;;;11.07;9.30;;;;;;;;;;5099231;28;20562;-94
2020/12/02 09:13:07;;;;;;;12.82;9.55;;;;;;;;;;5099349;28;20219;-93
2020/12/02 09:15:34;;;;;;;16.75;11.82;;;;;;;;;;5099627;28;20283;-93
2020/12/02 09:18:01;;;;;;;13.98;10.15;;;;;;;;;;5098976;28;20502;-92
2020/12/02 09:20:28;;;;;;;14.27;10.85;;;;;;;;;;5099888;28;20199;-92
2020/12/02 09:22:55;;;;;;;14.15;10.35;;;;;;;;;;5099780;28;20224;-91
2020/12/02 09:25:23;;;;;;;14.93;11.15;;;;;;;;;;5099775;28;20226;-92
2020/12/02 09:27:50;;;;;;;18.13;13.00;;;;;;;;;;5099167;28;20236;-93
2020/12/02 09:30:17;;;;;;;16.42;12.73;;;;;;;;;;5100026;28;20203;-94
2020/12/02 09:32:44;;;;;;;19.75;12.32;;;;;;;;;;5098979;28;20593;-92
2020/12/02 09:35:12;;;;;;;17.85;11.65;;;;;;;;;;5099911;28;20192;-93
2020/12/02 09:37:39;;;;;;;16.65;12.50;;;;;;;;;;5099184;28;20210;-93
2020/12/02 09:40:12;;;;;;;16.52;10.95;;;;;;;;;;5098839;28;20207;-92
2020/12/02 09:43:06;;;;;;;16.83;12.00;;;;;;;;;;5098465;28;20617;-93
2020/12/02 09:45:46;;;;;;;18.10;11.80;;;;;;;;;;5098860;28;20176;-93
2020/12/02 09:48:16;;;;;;;15.57;11.45;;;;;;;;;;5099624;28;20478;-92
2020/12/02 09:50:43;;;;;;;15.57;11.13;;;;;;;;;;5098497;28;20185;-92
2020/12/02 09:53:18;;;;;;;16.65;11.93;;;;;;;;;;5099073;28;20263;-93
2020/12/02 09:55:45;;;;;;;20.20;11.98;;;;;;;;;;5098367;28;20319;-93
2020/12/02 09:58:14;;;;;;;15.30;10.35;;;;;;;;;;5098730;28;20469;-92
2020/12/02 10:00:42;;;;;;;14.18;11.23;;;;;;;;;;5099650;28;20197;-92
2020/12/02 10:03:45;;;;;;;16.42;11.85;;;;;;;;;;5099186;28;20206;-93
2020/12/02 10:07:00;;;;;;;16.60;10.40;;;;;;;;;;5098928;28;20472;-92
2020/12/02 10:09:52;;;;;;;17.67;11.20;;;;;;;;;;5075362;28;20206;-91
2020/12/02 10:12:28;;;;;;;13.07;10.20;;;;;;;;;;5098728;28;20180;-93
2020/12/02 10:15:24;;;;;;;15.02;11.13;;;;;;;;;;5098431;28;20552;-92
2020/12/02 10:18:46;;;;;;;17.10;11.10;;;;;;;;;;5098526;28;20180;-91
2020/12/02 10:21:30;;;;;;;13.55;9.68;;;;;;;;;;5037296;28;20195;-92
2020/12/02 10:24:08;;;;;;;14.50;10.77;;;;;;;;;;5037402;28;20201;-91
2020/12/02 10:27:15;;;;;;;14.40;10.93;;;;;;;;;;5037065;28;20492;-90
2020/12/02 10:30:11;;;;;;;15.70;12.25;;;;;;;;;;5037017;28;20218;-92
2020/12/02 10:33:14;;;;;;;13.10;10.23;;;;;;;;;;5036892;28;20201;-91
2020/12/02 10:35:46;;;;;;;15.07;11.65;;;;;;;;;;5036999;28;20308;-93
2020/12/02 10:38:32;;;;;;;14.88;9.48;;;;;;;;;;5036419;28;20195;-92
2020/12/02 10:41:06;;;;;;;14.35;10.45;;;;;;;;;;5037088;28;20206;-92
2020/12/02 10:43:40;;;;;;;15.10;10.15;;;;;;;;;;5037036;28;20489;-93
2020/12/02 10:46:21;;;;;;;14.85;9.70;;;;;;;;;;5037213;28;20206;-90
2020/12/02 10:49:07;;;;;;;14.23;10.57;;;;;;;;;;5036780;28;20222;-92
2020/12/02 10:51:36;;;;;;;13.30;9.57;;;;;;;;;;5040045;28;20206;-93
2020/12/02 10:54:11;;;;;;;12.88;10.10;;;;;;;;;;5040972;28;20202;-92
2020/12/02 10:56:38;;;;;;;12.93;10.38;;;;;;;;;;5040976;28;20238;-94
2020/12/02 10:59:06;;;;;;;13.43;10.20;;;;;;;;;;5102195;28;20211;-92
2020/12/02 11:01:33;;;;;;;12.25;10.00;;;;;;;;;;5102091;28;20203;-93
2020/12/02 11:04:01;;;;;;;11.95;8.98;;;;;;;;;;5102111;28;20223;-93
2020/12/02 11:06:43;;;;;;;15.23;10.48;;;;;;;;;;5101794;28;20568;-92
2020/12/02 11:09:34;;;;;;;13.75;9.73;;;;;;;;;;5101556;28;20224;-92
2020/12/02 11:12:18;;;;;;;11.77;8.93;;;;;;;;;;5101807;28;20196;-94
2020/12/02 11:15:13;;;;;;;9.65;6.40;;;;;;;;;;5101844;28;20203;-94
2020/12/02 11:18:00;;;;;;;7.85;6.93;;;;;;;;;;5092046;28;20573;-93
2020/12/02 11:20:34;;;;;;;8.68;7.07;;;;;;;;;;5101588;28;20180;-93
2020/12/02 11:23:07;;;;;;;10.93;8.32;;;;;;;;;;5101424;28;20207;-94
2020/12/02 11:25:44;;;;;;;8.88;7.07;;;;;;;;;;5101802;28;20224;-92
2020/12/02 11:28:11;;;;;;;8.63;7.72;;;;;;;;;;5101795;28;20220;-93
2020/12/02 11:30:42;;;;;;;10.70;7.85;;;;;;;;;;5101572;28;20204;-94
2020/12/02 11:34:01;;;;;;;11.18;8.85;;;;;;;;;;5100843;28;20173;-93
2020/12/02 11:36:59;;;;;;;9.48;7.70;;;;;;;;;;5101780;28;20196;-93
2020/12/02 11:40:02;;;;;;;11.13;9.10;;;;;;;;;;5101993;28;20201;-92
2020/12/02 11:42:40;;;;;;;11.80;8.70;;;;;;;;;;5040126;28;20210;-94
2020/12/02 11:45:15;;;;;;;9.55;8.57;;;;;;;;;;5040046;28;20213;-94
2020/12/02 11:47:57;;;;;;;11.07;8.95;;;;;;;;;;5039676;28;20221;-94
2020/12/02 11:50:30;;;;;;;9.82;8.30;;;;;;;;;;5039860;28;20216;-93
2020/12/02 11:53:09;;;;;;;11.85;8.20;;;;;;;;;;5039331;28;20210;-92
2020/12/02 11:55:37;;;;;;;9.88;8.07;;;;;;;;;;5039290;28;20226;-93
2020/12/02 11:58:07;;;;;;;10.80;9.43;;;;;;;;;;5039158;28;20470;-92
2020/12/02 12:00:34;;;;;;;11.50;8.50;;;;;;;;;;5038302;28;20182;-92
2020/12/02 12:03:29;;;;;;;10.30;8.50;;;;;;;;;;5039867;28;20202;-93
2020/12/02 12:06:06;;;;;;;11.63;8.20;;;;;;;;;;5036579;28;20498;-94
2020/12/02 12:08:53;;;;;;;10.13;8.60;;;;;;;;;;5039434;28;20595;-92
2020/12/02 12:11:29;;;;;;;12.02;8.85;;;;;;;;;;5038518;28;20194;-94
2020/12/02 12:14:02;;;;;;;9.05;7.93;;;;;;;;;;5039177;28;20198;-93
2020/12/02 12:16:37;;;;;;;9.30;8.27;;;;;;;;;;5039528;28;20198;-92
2020/12/02 12:19:09;;;;;;;13.18;9.75;;;;;;;;;;5093124;28;20200;-92
2020/12/02 12:21:42;;;;;;;11.43;8.93;;;;;;;;;;5100516;28;20207;-93
2020/12/02 12:24:12;;;;;;;10.15;8.80;;;;;;;;;;5100433;28;20202;-93
2020/12/02 12:26:51;;;;;;;11.50;8.38;;;;;;;;;;5099887;28;20226;-93
2020/12/02 12:29:19;;;;;;;9.63;7.85;;;;;;;;;;5100334;28;20231;-93
2020/12/02 12:31:51;;;;;;;8.98;7.88;;;;;;;;;;5100682;28;20205;-94
2020/12/02 12:34:30;;;;;;;10.88;9.10;;;;;;;;;;5100381;28;20568;-93
2020/12/02 12:37:04;;;;;;;9.57;8.45;;;;;;;;;;5100437;28;20200;-93
2020/12/02 12:39:35;;;;;;;9.50;8.30;;;;;;;;;;5100086;28;20196;-93
2020/12/02 12:42:05;;;;;;;10.40;8.90;;;;;;;;;;5100482;28;20185;-94
2020/12/02 12:44:35;;;;;;;10.10;8.52;;;;;;;;;;5099398;28;20185;-91
2020/12/02 12:47:14;;;;;;;12.75;10.20;;;;;;;;;;5099592;28;20212;-93
2020/12/02 12:49:42;;;;;;;11.85;9.63;;;;;;;;;;5099749;28;20229;-93
2020/12/02 12:52:17;;;;;;;11.80;8.68;;;;;;;;;;5100385;28;20446;-93
2020/12/02 12:54:45;;;;;;;11.43;9.48;;;;;;;;;;5099182;28;20303;-93
2020/12/02 12:57:16;;;;;;;11.10;9.32;;;;;;;;;;5099078;28;20598;-94
2020/12/02 12:59:44;;;;;;;10.32;9.05;;;;;;;;;;5099310;28;20577;-93
2020/12/02 13:02:20;;;;;;;11.20;8.77;;;;;;;;;;5099674;28;20173;-94
2020/12/02 13:04:47;;;;;;;11.55;8.88;;;;;;;;;;5099478;28;20227;-93
2020/12/02 13:07:21;;;;;;;15.02;9.32;;;;;;;;;;5099282;28;20538;-93
2020/12/02 13:10:27;;;;;;;12.55;9.38;;;;;;;;;;5099459;28;20301;-93
2020/12/02 13:13:22;;;;;;;10.93;9.50;;;;;;;;;;5017880;28;20276;-93
2020/12/02 13:16:03;;;;;;;12.88;10.35;;;;;;;;;;5017782;28;20183;-94
2020/12/02 13:19:02;;;;;;;12.18;10.30;;;;;;;;;;5018783;28;20211;-92
2020/12/02 13:21:36;;;;;;;11.15;10.00;;;;;;;;;;5018650;28;20199;-94
2020/12/02 13:24:15;;;;;;;12.10;9.95;;;;;;;;;;5018625;28;20268;-93
2020/12/02 13:26:42;;;;;;;12.27;9.30;;;;;;;;;;5017867;28;20219;-93
2020/12/02 13:29:16;;;;;;;12.52;10.23;;;;;;;;;;5017839;28;20299;-93
2020/12/02 13:31:50;;;;;;;13.70;9.40;;;;;;;;;;5018561;28;20334;-93
2020/12/02 13:34:18;;;;;;;14.02;10.45;;;;;;;;;;5018399;28;20222;-93
2020/12/02 13:36:45;;;;;;;14.88;11.00;;;;;;;;;;5017619;28;20191;-93
2020/12/02 13:39:13;;;;;;;14.13;10.75;;;;;;;;;;5017534;28;20197;-92
2020/12/02 13:41:48;;;;;;;11.57;9.75;;;;;;;;;;5017443;28;20198;-93
2020/12/02 13:44:16;;;;;;;13.60;10.20;;;;;;;;;;5018030;28;20225;-92
2020/12/02 13:46:43;;;;;;;13.43;10.32;;;;;;;;;;5017934;28;20273;-91
2020/12/02 13:49:13;;;;;;;10.52;9.32;;;;;;;;;;5036657;28;20208;-94
2020/12/02 13:51:58;;;;;;;10.35;8.90;;;;;;;;;;5098764;28;20188;-91
2020/12/02 13:54:35;;;;;;;12.15;9.40;;;;;;;;;;5099401;28;20200;-93
2020/12/02 13:57:09;;;;;;;14.48;10.32;;;;;;;;;;5099330;28;20227;-93
2020/12/02 13:59:58;;;;;;;12.68;10.27;;;;;;;;;;5098752;28;20446;-94
2020/12/02 14:02:42;;;;;;;14.20;11.05;;;;;;;;;;5099051;28;20207;-95
2020/12/02 14:05:19;;;;;;;13.45;10.02;;;;;;;;;;5099681;28;20207;-93
2020/12/02 14:07:48;;;;;;;11.75;10.13;;;;;;;;;;5099215;28;20219;-94
2020/12/02 14:10:15;;;;;;;12.32;10.10;;;;;;;;;;5098354;28;20300;-94
2020/12/02 14:12:43;;;;;;;13.40;10.50;;;;;;;;;;5099034;28;20230;-93
2020/12/02 14:15:17;;;;;;;13.60;10.52;;;;;;;;;;5098768;28;20196;-94
2020/12/02 14:17:44;;;;;;;10.70;9.60;;;;;;;;;;5099263;28;20269;-93
2020/12/02 14:20:12;;;;;;;11.20;9.50;;;;;;;;;;5098556;28;20471;-93
2020/12/02 14:22:40;;;;;;;12.43;10.80;;;;;;;;;;5099161;28;20246;-93
2020/12/02 14:25:11;;;;;;;16.42;11.77;;;;;;;;;;5101105;28;20216;-94
2020/12/02 14:27:41;;;;;;;12.27;9.57;;;;;;;;;;5102766;28;20214;-92
2020/12/02 14:30:17;;;;;;;12.95;10.48;;;;;;;;;;5101943;28;20205;-93
2020/12/02 14:32:45;;;;;;;13.82;11.02;;;;;;;;;;5102982;28;20204;-94
2020/12/02 14:35:13;;;;;;;11.75;10.23;;;;;;;;;;5102437;28;20201;-92
2020/12/02 14:37:40;;;;;;;10.93;9.48;;;;;;;;;;5102964;28;20561;-93
2020/12/02 14:40:08;;;;;;;15.15;10.43;;;;;;;;;;5102692;28;20351;-93
2020/12/02 14:42:35;;;;;;;12.95;10.25;;;;;;;;;;5102322;28;20197;-94
2020/12/02 14:45:03;;;;;;;12.00;10.13;;;;;;;;;;5102938;28;20463;-92
2020/12/02 14:47:30;;;;;;;11.48;9.57;;;;;;;;;;5102161;28;20206;-94
2020/12/02 14:49:57;;;;;;;14.13;10.27;;;;;;;;;;5101859;28;20225;-95
2020/12/02 14:52:24;;;;;;;12.93;10.05;;;;;;;;;;5102682;28;20205;-93
2020/12/02 14:54:51;;;;;;;13.02;10.27;;;;;;;;;;5102787;28;20229;-94
2020/12/02 14:57:41;;;;;;;13.32;11.18;;;;;;;;;;5101512;28;20228;-94
2020/12/02 15:00:11;;;;;;;14.05;10.60;;;;;;;;;;5102854;28;20208;-93
2020/12/02 15:02:41;;;;;;;12.52;10.93;;;;;;;;;;5101659;28;20172;-93
2020/12/02 15:05:15;;;;;;;14.95;11.07;;;;;;;;;;5102072;28;20201;-93
2020/12/02 15:08:01;;;;;;;12.43;10.32;;;;;;;;;;5102316;28;20196;-94
2020/12/02 15:10:36;;;;;;;13.95;10.52;;;;;;;;;;5102106;28;20225;-93
2020/12/02 15:13:05;;;;;;;14.68;11.07;;;;;;;;;;5101474;28;20645;-93
2020/12/02 15:15:32;;;;;;;13.95;9.77;;;;;;;;;;5101581;28;20204;-94